DAL249 EDDH-KJFK
Flight info
| Callsign | DAL249 |
|---|---|
| Flight time | N/A |
| Altitude | 29000 |
| Route | ELSOB3G ELSOB Y348 OMWEG DCT ASMUS DCT INSUS/N0495F300 DCT GOLUM L975 LESRA DCT DOKEN DCT GOMOT DCT PIPAR/N0489F320 DCT BRUCE DCT AMLAD DCT PIKIL/M085F330 DCT 56N020W 55N030W 53N040W 51N050W DCT ALLRY/N0494F340 N468A TUSKY DCT PLYMM PARCH4 |
| Aircraft | L101/H-SDFGHIRWXY/S |
Departure
| Time | 2026-05-07 21:51 |
|---|---|
| Airport | Hamburg Helmut Schmidt Airport (EDDH) |
Arrival
| Time | N/A |
|---|---|
| Airport | John F. Kennedy International Airport (KJFK) |
| Time | Latitude | Longitude | Altitude | Speed | Heading |
|---|---|---|---|---|---|
| 2026-05-07 21:16 | 53.62799 | 9.99364 | 45 ft | 0 kts | 242° |
| 2026-05-07 21:42 | 53.62801 | 9.99368 | 50 ft | 2 kts | 242° |
| 2026-05-07 21:42 | 53.62809 | 9.99394 | 49 ft | 2 kts | 242° |
| 2026-05-07 21:42 | 53.62816 | 9.99420 | 49 ft | 3 kts | 233° |
| 2026-05-07 21:43 | 53.62830 | 9.99438 | 46 ft | 3 kts | 182° |
| 2026-05-07 21:43 | 53.62842 | 9.99437 | 45 ft | 0 kts | 147° |
| 2026-05-07 21:45 | 53.62838 | 9.99441 | 46 ft | 2 kts | 143° |
| 2026-05-07 21:45 | 53.62824 | 9.99461 | 44 ft | 3 kts | 141° |
| 2026-05-07 21:45 | 53.62803 | 9.99488 | 44 ft | 4 kts | 144° |
| 2026-05-07 21:46 | 53.62772 | 9.99520 | 49 ft | 6 kts | 150° |
| 2026-05-07 21:46 | 53.62729 | 9.99560 | 45 ft | 8 kts | 153° |
| 2026-05-07 21:46 | 53.62675 | 9.99607 | 47 ft | 9 kts | 152° |
| 2026-05-07 21:46 | 53.62641 | 9.99693 | 47 ft | 9 kts | 99° |
| 2026-05-07 21:47 | 53.62650 | 9.99794 | 51 ft | 9 kts | 66° |
| 2026-05-07 21:47 | 53.62692 | 9.99856 | 53 ft | 8 kts | 22° |
| 2026-05-07 21:47 | 53.62747 | 9.99847 | 47 ft | 3 kts | 333° |
| 2026-05-07 21:47 | 53.62748 | 9.99847 | 47 ft | 0 kts | 334° |
| 2026-05-07 21:51 | 53.62879 | 9.99739 | 48 ft | 56 kts | 334° |
| 2026-05-07 21:51 | 53.63453 | 9.99239 | 45 ft | 128 kts | 332° |
| 2026-05-07 21:51 | 53.64433 | 9.98399 | 211 ft | 178 kts | 335° |
| 2026-05-07 21:51 | 53.65612 | 9.97378 | 681 ft | 204 kts | 334° |
| 2026-05-07 21:52 | 53.66953 | 9.96200 | 1152 ft | 222 kts | 334° |
| 2026-05-07 21:52 | 53.68315 | 9.94981 | 1689 ft | 224 kts | 334° |
| 2026-05-07 21:52 | 53.69745 | 9.93703 | 1859 ft | 240 kts | 334° |
| 2026-05-07 21:52 | 53.71236 | 9.92372 | 2126 ft | 250 kts | 334° |
| 2026-05-07 21:53 | 53.72778 | 9.90912 | 2414 ft | 258 kts | 324° |
| 2026-05-07 21:53 | 53.73862 | 9.88474 | 2663 ft | 267 kts | 291° |
| 2026-05-07 21:53 | 53.74086 | 9.85365 | 3002 ft | 267 kts | 262° |
| 2026-05-07 21:53 | 53.73523 | 9.82410 | 3453 ft | 264 kts | 245° |
| 2026-05-07 21:54 | 53.72775 | 9.79573 | 3782 ft | 268 kts | 244° |
| 2026-05-07 21:54 | 53.71954 | 9.76659 | 3918 ft | 277 kts | 242° |
| 2026-05-07 21:54 | 53.71082 | 9.73853 | 4723 ft | 270 kts | 239° |
| 2026-05-07 21:54 | 53.70139 | 9.71052 | 4768 ft | 277 kts | 241° |
| 2026-05-07 21:55 | 53.69374 | 9.68102 | 4598 ft | 270 kts | 248° |
| 2026-05-07 21:55 | 53.68806 | 9.65106 | 4632 ft | 270 kts | 258° |
| 2026-05-07 21:55 | 53.68732 | 9.61963 | 4735 ft | 268 kts | 281° |
| 2026-05-07 21:55 | 53.69383 | 9.59045 | 4927 ft | 268 kts | 305° |
| 2026-05-07 21:56 | 53.70645 | 9.56824 | 5047 ft | 266 kts | 329° |
| 2026-05-07 21:56 | 53.72320 | 9.55521 | 5210 ft | 265 kts | 345° |
| 2026-05-07 21:56 | 53.74099 | 9.54798 | 5414 ft | 269 kts | 351° |
| 2026-05-07 21:56 | 53.75946 | 9.54235 | 5551 ft | 270 kts | 352° |
| 2026-05-07 21:57 | 53.77803 | 9.53716 | 5684 ft | 270 kts | 353° |
| 2026-05-07 21:57 | 53.79657 | 9.53213 | 5815 ft | 270 kts | 354° |
| 2026-05-07 21:57 | 53.81528 | 9.52951 | 5942 ft | 269 kts | 1° |
| 2026-05-07 21:57 | 53.83401 | 9.53050 | 6072 ft | 268 kts | 7° |
| 2026-05-07 21:58 | 53.85242 | 9.53142 | 6196 ft | 270 kts | 359° |
| 2026-05-07 21:58 | 53.87115 | 9.52825 | 6340 ft | 271 kts | 354° |
| 2026-05-07 21:58 | 53.88986 | 9.52351 | 6469 ft | 273 kts | 353° |
| 2026-05-07 21:58 | 53.90863 | 9.51820 | 6598 ft | 274 kts | 352° |
| 2026-05-07 21:59 | 53.92732 | 9.51271 | 6717 ft | 274 kts | 352° |
| 2026-05-07 21:59 | 53.94609 | 9.50716 | 6845 ft | 274 kts | 352° |
| 2026-05-07 21:59 | 53.96494 | 9.50159 | 6961 ft | 275 kts | 352° |
| 2026-05-07 21:59 | 53.98384 | 9.49604 | 7096 ft | 276 kts | 352° |
| 2026-05-07 22:00 | 54.00280 | 9.49055 | 7221 ft | 276 kts | 352° |
| 2026-05-07 22:00 | 54.02178 | 9.48509 | 7396 ft | 276 kts | 352° |
| 2026-05-07 22:00 | 54.03977 | 9.47992 | 8136 ft | 254 kts | 352° |
| 2026-05-07 22:00 | 54.05747 | 9.47486 | 8588 ft | 268 kts | 352° |
| 2026-05-07 22:01 | 54.07601 | 9.46791 | 8752 ft | 276 kts | 343° |
| 2026-05-07 22:01 | 54.09395 | 9.45600 | 8888 ft | 277 kts | 335° |
| 2026-05-07 22:01 | 54.11110 | 9.44120 | 9034 ft | 276 kts | 332° |
| 2026-05-07 22:01 | 54.12800 | 9.42548 | 9145 ft | 277 kts | 332° |
| 2026-05-07 22:02 | 54.14490 | 9.40936 | 9324 ft | 282 kts | 331° |
| 2026-05-07 22:02 | 54.16218 | 9.39268 | 9449 ft | 288 kts | 331° |
| 2026-05-07 22:02 | 54.17968 | 9.37578 | 9582 ft | 289 kts | 330° |